Hurlburt Field, FL

11:59 PM CST on December 24, 2014 (GMT -0600)
Crestview | Change Station
CLOSE
Current Station
Airport
Location: Crestview,
Elevation: 194 ft
Nearby Weather Stations
Active Advisory: Flood Warning

Elev 194 ft 30.65 °N, 86.52 °W | Updated 11 minutes ago

Overcast
Overcast
50 °F
Feels Like 50 °F
N
8
Wind Variable Wind from NW

Today
High -- | Low -- °F
--% Chance of Precip.
Yesterday
High -- | Low -- °F
Precip. -- in
6:40 AM 4:52 PM
Waxing Crescent, 13% visible
Pressure 30.04 in
Visibility 10.0 miles
Clouds Scattered Clouds 2600 ft
Mostly Cloudy 3500 ft
Dew Point 45 °F
Humidity 82%
Rainfall 1.40 in
Snow Depth Not available.
UV 0 out of 12
Pollen .50 out of 12
Air Quality Not available.
Flu Activity Not available.
SPECI KEGI 250548Z AUTO 32007KT 280V340 10SM SCT026 BKN035 10/07 A3004 RMK AO2 $

More Conditions Fewer Conditions

Pressure 30.04 in
Visibility 10.0 miles
Clouds Scattered Clouds 2600 ft
Mostly Cloudy 3500 ft
Dew Point 45 °F
Humidity 82%
Rainfall 1.40 in
Snow Depth Not available.
UV 0 out of 12
Pollen .50 out of 12
Air Quality Not available.
Flu Activity Not available.
SPECI KEGI 250548Z AUTO 32007KT 280V340 10SM SCT026 BKN035 10/07 A3004 RMK AO2 $

More Conditions Fewer Conditions

10-Day Weather Forecast

Almanac

Astronomy

Dec. 24, 2014 Rise Set
Actual Time
Civil Twilight
Nautical Twilight
Astronomical Twilight
Moon
Length of Visible Light
Length of Day
Tomorrow will be .
, % of the Moon is Illuminated

Today's Extremes

State Highs State Lows

Community

WunderPhotos

Upload Photos

1,780,244 photos uploaded!

WunderBlogs® & News

Nearby

Air Quality

  Air Quality AQ Index Pollutant
Not available.

Snow Depth

Station Depth Elevation

Earthquake Activity

City Distance Mag. Time & Date
Minimum magnitude displayed is 2.5.

Coastal Water Temperatures

Place Temperature

Nearby Weather Stations